Terminal Aerodrome Forecast
Issued by NWS

Home | Current Version | Previous Version | Text Only | Print | Product List | Glossary On
Versions: 1 2 3 4 5 6 7 8 9 10 11 12 13 14 15
000
FTUS46 KEKA 031720
TAFUKI
TAF
KUKI 031720Z 0318/0418 12006KT P6SM SKC
     FM032200 14011G16KT P6SM SKC
     FM040100 VRB05KT P6SM SKC
     FM041000 14005KT P6SM BKN015=

USA.gov is the U.S. government's official web portal to all federal, state and local government web resources and services.